• Join FlightAware (Why Join?)
  • Login
  • US Flag 
11:59AM EST


 

Airport Tracker/Info


-or-


 

Live Flight TrackerFlight Track Log ✈ CFS657 ✈ 17-Dec-2013 ✈ KCLM - KSEA

Flight Track Log - Related Links

Times and Time Zones

All times are in EST time to prevent confusion due to time zone crossing. See the CFS657 flight status page for this flight to view local times or setup timezone preferences in your user account.

Time Position Orientation Groundspeed Altitude Reporting Facility
EST Latitude Longitude Course Direction KTS MPH feet Rate Location/Type
08:18PM 48.1269 -123.4219 89° East 133 153 2,100  Level Seattle Center
08:19PM 48.1275 -123.3883 89° East 135 155 2,500 780 Climbing Seattle Center
08:19PM 48.1294 -123.3342 87° East 145 167 3,300 780 Climbing Seattle Center
08:20PM 48.1253 -123.2733 96° East 144 166 4,000 720 Climbing Seattle Center
08:21PM 48.1125 -123.2142 108° East 142 163 4,800 540 Climbing Seattle Center
08:22PM 48.0958 -123.1569 114° Southeast 157 181 5,100 240 Climbing Seattle Center
08:23PM 48.0944 -123.1431 99° East 158 182 5,100 -120 Level Seattle Center
08:24PM 48.0817 -123.0739 105° East 172 198 5,000 -60 Descending Seattle Center
08:25PM 48.0681 -123.0200 111° Southeast 176 203 5,000  Level Seattle Center
08:25PM 48.0664 -123.0058 100° East 171 197 5,000  Level Seattle Center
08:26PM 48.0550 -122.9508 107° East 161 185 5,000  Level Seattle Center
08:26PM 48.0533 -122.9414 105° East 161 185 5,000  Level Seattle Center
08:27PM 48.0406 -122.8861 109° East 153 176 5,000  Level Seattle Center
08:27PM 48.0406 -122.8819 90° East 152 175 5,000  Level Seattle Center
08:27PM 48.0306 -122.8361 108° East 154 177 5,000  Level Seattle Center
08:28PM 48.0244 -122.8225 124° Southeast 153 176 5,000  Level Seattle Center
08:28PM 48.0031 -122.8147 166° South 154 177 5,000 -120 Level Seattle Center
08:29PM 47.9817 -122.7989 154° Southeast 159 183 4,900 -240 Descending Seattle Center
08:29PM 47.9661 -122.7819 144° Southeast 170 196 4,800 -540 Descending Seattle Center
08:30PM 47.9533 -122.7342 112° Southeast 167 192 4,400 -540 Descending Seattle Center
08:30PM 47.9497 -122.7150 106° East 164 189 4,300 -420 Descending Seattle Center
08:31PM 47.9394 -122.6689 108° East 166 191 4,000 -300 Descending Seattle Center
08:31PM 47.9358 -122.6500 106° East 166 191 4,000  Level Seattle Center
08:32PM 47.9247 -122.6047 110° East 164 189 4,000  Level Seattle Center
08:32PM 47.9225 -122.5881 101° East 164 189 4,000  Level Seattle Center
08:33PM 47.9122 -122.5397 108° East 163 188 4,000  Level Seattle Center
08:33PM 47.9058 -122.5114 109° East 165 190 4,000  Level Seattle Center
08:34PM 47.8981 -122.4753 108° East 164 189 4,000  Level Seattle Center
08:34PM 47.8911 -122.4436 108° East 162 186 4,000  Level Seattle Center
08:35PM 47.8833 -122.4114 110° East 163 188 4,000  Level Seattle Center
08:35PM 47.8742 -122.3769 112° Southeast 163 188 4,000  Level Seattle Center
08:36PM 47.8664 -122.3497 113° Southeast 161 185 4,000  Level Seattle Center
08:36PM 47.8464 -122.3364 156° South 168 193 4,000  Level Seattle Center
08:37PM 47.8250 -122.3167 148° Southeast 165 190 4,000  Level Seattle Center
08:37PM 47.8017 -122.3181 182° South 166 191 4,000  Level Seattle Center
08:38PM 47.7739 -122.3161 177° South 168 193 4,000  Level Seattle Center
08:38PM 47.7569 -122.3167 181° South 166 191 4,000  Level Seattle Center
08:39PM 47.7292 -122.3153 178° South 163 188 4,000  Level Seattle Center
08:39PM 47.7056 -122.3156 180° South 163 188 4,000  Level Seattle Center
08:40PM 47.6836 -122.3161 181° South 164 189 4,000  Level Seattle Center
08:40PM 47.6614 -122.3167 181° South 167 192 4,000  Level Seattle Center
08:41PM 47.6381 -122.3167 180° South 164 189 4,000 -480 Level Seattle Center
08:41PM 47.6192 -122.3172 181° South 165 190 3,600 -1,140 Descending Seattle Center
08:42PM 47.5906 -122.3161 178° South 172 198 2,900 -900 Descending Seattle Center
08:42PM 47.5731 -122.3194 187° South 164 189 2,700 -840 Descending Seattle Center
08:43PM 47.5472 -122.3178 178° South 158 182 2,100 -900 Descending Seattle Center
08:44PM 47.5236 -122.3172 179° South 153 176 1,700 -900 Descending Seattle Center
08:44PM 47.5000 -122.3178 181° South 158 182 1,200 -900 Descending Seattle Center
08:45PM 47.4814 -122.3175 179° South 155 178 800 -600 Descending Seattle Center
08:45PM 47.4692 -122.3181 182° South 95 109 600 -300 Descending Seattle Center
08:46PM 47.4581 -122.3172 177° South 39 45 400 -120 Descending Seattle Center
08:47PM 47.4581 -122.3153 90° East 32 37 400  Level Seattle Center